createdAt,value
2019-05-15T00:00:24.401Z,4.60
2019-05-15T00:11:08.312Z,4.20
2019-05-15T00:21:50.420Z,4.00
2019-05-15T00:32:38.979Z,4.80
2019-05-15T00:43:21.609Z,4.00
2019-05-15T00:54:05.335Z,4.40
2019-05-15T01:04:48.013Z,5.00
2019-05-15T01:15:29.039Z,6.30
2019-05-15T01:26:10.308Z,4.50
2019-05-15T01:36:55.211Z,3.90
2019-05-15T01:47:39.313Z,4.60
2019-05-15T01:58:22.630Z,4.00
2019-05-15T02:09:08.355Z,4.40
2019-05-15T02:19:50.371Z,4.00
2019-05-15T02:30:34.083Z,5.40
2019-05-15T02:41:15.213Z,3.40
2019-05-15T02:52:02.243Z,5.90
2019-05-15T03:02:46.313Z,4.20
2019-05-15T03:13:30.040Z,5.20
2019-05-15T03:24:13.650Z,4.60
2019-05-15T03:34:55.698Z,3.90
2019-05-15T03:45:32.457Z,3.90
2019-05-15T03:56:15.365Z,6.10
2019-05-15T04:06:59.977Z,5.40
2019-05-15T04:17:41.588Z,5.90
2019-05-15T04:28:23.477Z,5.40
2019-05-15T04:39:09.564Z,6.90
2019-05-15T04:49:53.453Z,5.30
2019-05-15T05:00:44.446Z,3.10
2019-05-15T05:11:33.309Z,4.10
2019-05-15T05:22:21.651Z,3.40
2019-05-15T05:33:08.530Z,2.80
2019-05-15T05:43:53.600Z,3.00
2019-05-15T05:54:40.583Z,5.00
2019-05-15T06:05:28.012Z,3.60
2019-05-15T06:16:04.626Z,4.30
2019-05-15T06:26:38.719Z,5.40
2019-05-15T06:37:24.456Z,3.30
2019-05-15T06:48:09.484Z,2.80
2019-05-15T06:58:49.586Z,4.30
2019-05-15T07:09:13.704Z,4.40
2019-05-15T07:19:49.708Z,6.20
2019-05-15T07:30:28.709Z,4.60
2019-05-15T07:41:11.633Z,4.70
2019-05-15T07:51:59.011Z,3.80
2019-05-15T08:02:37.944Z,4.00
2019-05-15T08:13:18.447Z,3.40
2019-05-15T08:23:59.394Z,3.70
2019-05-15T08:34:38.611Z,1.80
2019-05-15T08:45:19.095Z,2.20
2019-05-15T08:55:59.857Z,3.10
2019-05-15T09:06:41.573Z,3.40
2019-05-15T09:17:25.523Z,2.70
2019-05-15T09:28:05.836Z,2.10
2019-05-15T09:38:49.329Z,1.80
2019-05-15T09:49:32.736Z,2.70
2019-05-15T10:00:18.994Z,1.40
2019-05-15T10:10:59.405Z,2.90
2019-05-15T10:21:40.798Z,2.50
2019-05-15T10:32:23.848Z,1.60
2019-05-15T10:43:08.802Z,2.20
2019-05-15T10:53:49.017Z,2.20
2019-05-15T11:04:29.709Z,1.50
2019-05-15T11:15:04.326Z,2.70
2019-05-15T11:25:45.678Z,3.10
2019-05-15T11:36:28.947Z,2.90
2019-05-15T11:47:05.368Z,2.90
2019-05-15T11:57:51.598Z,2.90
2019-05-15T12:08:35.040Z,2.80
2019-05-15T12:19:17.088Z,2.70
2019-05-15T12:29:51.754Z,2.40
2019-05-15T13:01:50.750Z,2.50
2019-05-15T13:12:29.694Z,2.30
2019-05-15T13:23:10.692Z,1.80
2019-05-15T13:33:48.197Z,1.90
2019-05-15T13:44:29.703Z,3.80
2019-05-15T13:55:54.514Z,2.10
2019-05-15T14:06:37.797Z,2.70
2019-05-15T14:17:19.896Z,2.60
2019-05-15T14:27:59.707Z,2.20
2019-05-15T14:38:42.115Z,1.70
2019-05-15T14:49:25.417Z,2.30
2019-05-15T15:00:08.866Z,2.00
2019-05-15T15:10:51.025Z,4.20
2019-05-15T15:21:31.343Z,2.40
2019-05-15T15:32:14.114Z,1.50
2019-05-15T15:42:58.165Z,2.40
2019-05-15T15:53:40.404Z,2.40
2019-05-15T16:04:23.250Z,1.80
2019-05-15T16:15:00.228Z,2.40
2019-05-15T16:25:44.417Z,2.10
2019-05-15T16:36:28.364Z,4.50
2019-05-15T16:47:10.619Z,3.20
2019-05-15T16:57:48.368Z,2.20
2019-05-15T17:08:30.399Z,1.40
2019-05-15T17:19:09.923Z,1.50
2019-05-15T17:29:50.551Z,2.80
2019-05-15T17:40:30.414Z,1.90
2019-05-15T17:52:20.468Z,2.00
2019-05-15T18:13:41.784Z,1.90
2019-05-15T18:24:09.797Z,2.50
2019-05-15T18:34:50.302Z,2.90
2019-05-15T18:45:33.262Z,3.80
2019-05-15T18:56:11.635Z,3.10
2019-05-15T19:06:53.689Z,2.30
2019-05-15T19:17:34.504Z,2.00
2019-05-15T19:28:14.424Z,1.90
2019-05-15T19:38:52.485Z,3.60
2019-05-15T19:49:31.522Z,1.70
2019-05-15T20:00:08.819Z,2.40
2019-05-15T20:10:41.719Z,2.60
2019-05-15T20:21:20.200Z,2.50
2019-05-15T20:31:58.731Z,4.80
2019-05-15T20:42:38.018Z,3.60
2019-05-15T20:53:13.243Z,2.30
2019-05-15T21:03:51.342Z,2.40
2019-05-15T21:14:32.622Z,4.10
2019-05-15T21:25:12.646Z,2.60
2019-05-15T21:35:50.413Z,3.60
2019-05-15T21:46:33.017Z,4.50
2019-05-15T21:57:30.045Z,4.70
2019-05-15T22:07:58.516Z,6.60
2019-05-15T22:18:38.414Z,5.50
2019-05-15T22:29:20.689Z,1.90
2019-05-15T22:39:57.960Z,2.80
2019-05-15T22:50:40.735Z,2.80
2019-05-15T23:01:24.601Z,4.30
2019-05-15T23:11:58.669Z,2.80
2019-05-15T23:22:35.627Z,3.00
2019-05-15T23:33:18.825Z,3.10
2019-05-15T23:44:00.533Z,2.30
2019-05-15T23:54:41.449Z,3.10
